sensor_id;sensor_type;location;lat;lon;timestamp;temperature;humidity
612;DHT22;293;53.888;11.464;2023-05-19T00:01:07;8.50;99.90
612;DHT22;293;53.888;11.464;2023-05-19T00:03:35;8.50;99.90
612;DHT22;293;53.888;11.464;2023-05-19T00:06:06;8.50;99.90
612;DHT22;293;53.888;11.464;2023-05-19T00:08:37;8.50;99.90
612;DHT22;293;53.888;11.464;2023-05-19T00:11:05;8.50;99.90
612;DHT22;293;53.888;11.464;2023-05-19T00:13:32;8.40;99.90
612;DHT22;293;53.888;11.464;2023-05-19T00:16:00;8.50;99.90
612;DHT22;293;53.888;11.464;2023-05-19T00:18:27;8.50;99.90
612;DHT22;293;53.888;11.464;2023-05-19T00:20:55;8.40;99.90
612;DHT22;293;53.888;11.464;2023-05-19T00:23:21;8.40;99.90
612;DHT22;293;53.888;11.464;2023-05-19T00:25:50;8.40;99.90
612;DHT22;293;53.888;11.464;2023-05-19T00:28:18;8.40;99.90
612;DHT22;293;53.888;11.464;2023-05-19T00:30:45;8.40;99.90
612;DHT22;293;53.888;11.464;2023-05-19T00:33:12;8.40;99.90
612;DHT22;293;53.888;11.464;2023-05-19T00:35:39;8.50;99.90
612;DHT22;293;53.888;11.464;2023-05-19T00:38:06;8.40;99.90
612;DHT22;293;53.888;11.464;2023-05-19T00:40:34;8.40;99.90
612;DHT22;293;53.888;11.464;2023-05-19T00:43:02;8.30;99.90
612;DHT22;293;53.888;11.464;2023-05-19T00:45:30;8.40;99.90
612;DHT22;293;53.888;11.464;2023-05-19T00:47:57;8.40;99.90
612;DHT22;293;53.888;11.464;2023-05-19T00:50:24;8.40;99.90
612;DHT22;293;53.888;11.464;2023-05-19T00:52:51;8.40;99.90
612;DHT22;293;53.888;11.464;2023-05-19T00:55:19;8.40;99.90
612;DHT22;293;53.888;11.464;2023-05-19T00:57:48;8.20;99.90
612;DHT22;293;53.888;11.464;2023-05-19T01:00:16;8.40;99.90
612;DHT22;293;53.888;11.464;2023-05-19T01:02:43;8.30;99.90
612;DHT22;293;53.888;11.464;2023-05-19T01:05:11;8.30;99.90
612;DHT22;293;53.888;11.464;2023-05-19T01:07:39;8.30;99.90
612;DHT22;293;53.888;11.464;2023-05-19T01:10:06;8.20;99.90
612;DHT22;293;53.888;11.464;2023-05-19T01:12:34;8.20;99.90
612;DHT22;293;53.888;11.464;2023-05-19T01:15:02;8.20;99.90
612;DHT22;293;53.888;11.464;2023-05-19T01:17:39;8.20;99.90
612;DHT22;293;53.888;11.464;2023-05-19T01:20:13;8.20;99.90
612;DHT22;293;53.888;11.464;2023-05-19T01:23:11;8.10;99.90
612;DHT22;293;53.888;11.464;2023-05-19T01:26:15;8.10;99.90
612;DHT22;293;53.888;11.464;2023-05-19T01:29:07;8.10;99.90
612;DHT22;293;53.888;11.464;2023-05-19T01:31:41;8.10;99.90
612;DHT22;293;53.888;11.464;2023-05-19T01:34:11;8.00;99.90
612;DHT22;293;53.888;11.464;2023-05-19T01:36:40;8.00;99.90
612;DHT22;293;53.888;11.464;2023-05-19T01:39:09;8.00;99.90
612;DHT22;293;53.888;11.464;2023-05-19T01:41:40;8.00;99.90
612;DHT22;293;53.888;11.464;2023-05-19T01:44:07;8.00;99.90
612;DHT22;293;53.888;11.464;2023-05-19T01:46:36;7.90;99.90
612;DHT22;293;53.888;11.464;2023-05-19T01:49:05;7.90;99.90
612;DHT22;293;53.888;11.464;2023-05-19T01:51:33;7.90;99.90
612;DHT22;293;53.888;11.464;2023-05-19T01:54:00;7.90;99.90
612;DHT22;293;53.888;11.464;2023-05-19T01:56:33;7.80;99.90
612;DHT22;293;53.888;11.464;2023-05-19T01:59:13;7.90;99.90
612;DHT22;293;53.888;11.464;2023-05-19T02:01:48;7.80;99.90
612;DHT22;293;53.888;11.464;2023-05-19T02:04:23;7.70;99.90
612;DHT22;293;53.888;11.464;2023-05-19T02:07:11;7.70;99.90
612;DHT22;293;53.888;11.464;2023-05-19T02:09:46;7.70;99.90
612;DHT22;293;53.888;11.464;2023-05-19T02:12:18;8.00;99.90
612;DHT22;293;53.888;11.464;2023-05-19T02:14:49;7.70;99.90
612;DHT22;293;53.888;11.464;2023-05-19T02:17:19;7.60;99.90
612;DHT22;293;53.888;11.464;2023-05-19T02:19:47;7.60;99.90
612;DHT22;293;53.888;11.464;2023-05-19T02:22:14;7.60;99.90
612;DHT22;293;53.888;11.464;2023-05-19T02:24:41;7.50;99.90
612;DHT22;293;53.888;11.464;2023-05-19T02:27:08;7.50;99.90
612;DHT22;293;53.888;11.464;2023-05-19T02:29:35;7.40;99.90
612;DHT22;293;53.888;11.464;2023-05-19T02:32:02;7.40;99.90
612;DHT22;293;53.888;11.464;2023-05-19T02:34:29;7.40;99.90
612;DHT22;293;53.888;11.464;2023-05-19T02:36:58;7.40;99.90
612;DHT22;293;53.888;11.464;2023-05-19T02:39:25;7.40;99.90
612;DHT22;293;53.888;11.464;2023-05-19T02:41:53;7.40;99.90
612;DHT22;293;53.888;11.464;2023-05-19T02:44:20;7.50;99.90
612;DHT22;293;53.888;11.464;2023-05-19T02:46:47;7.60;99.90
612;DHT22;293;53.888;11.464;2023-05-19T02:49:14;7.60;99.90
612;DHT22;293;53.888;11.464;2023-05-19T02:51:41;7.60;99.90
612;DHT22;293;53.888;11.464;2023-05-19T02:54:09;7.50;99.90
612;DHT22;293;53.888;11.464;2023-05-19T02:56:36;7.50;99.90
612;DHT22;293;53.888;11.464;2023-05-19T02:59:02;7.50;99.90
612;DHT22;293;53.888;11.464;2023-05-19T03:01:30;7.50;99.90
612;DHT22;293;53.888;11.464;2023-05-19T03:03:58;7.50;99.90
612;DHT22;293;53.888;11.464;2023-05-19T03:06:25;7.50;99.90
612;DHT22;293;53.888;11.464;2023-05-19T03:08:52;7.50;99.90
612;DHT22;293;53.888;11.464;2023-05-19T03:11:20;7.60;99.90
612;DHT22;293;53.888;11.464;2023-05-19T03:13:47;7.70;99.90
612;DHT22;293;53.888;11.464;2023-05-19T03:16:14;7.80;99.90
612;DHT22;293;53.888;11.464;2023-05-19T03:18:42;7.80;99.90
612;DHT22;293;53.888;11.464;2023-05-19T03:21:09;7.90;99.90
612;DHT22;293;53.888;11.464;2023-05-19T03:23:35;8.00;99.90
612;DHT22;293;53.888;11.464;2023-05-19T03:26:02;8.10;99.90
612;DHT22;293;53.888;11.464;2023-05-19T03:28:31;8.20;99.90
612;DHT22;293;53.888;11.464;2023-05-19T03:30:58;8.30;99.90
612;DHT22;293;53.888;11.464;2023-05-19T03:33:25;8.40;99.90
612;DHT22;293;53.888;11.464;2023-05-19T03:35:52;8.40;99.90
612;DHT22;293;53.888;11.464;2023-05-19T03:38:19;8.50;99.90
612;DHT22;293;53.888;11.464;2023-05-19T03:40:46;8.60;99.90
612;DHT22;293;53.888;11.464;2023-05-19T03:43:12;8.80;99.90
612;DHT22;293;53.888;11.464;2023-05-19T03:45:41;9.10;99.90
612;DHT22;293;53.888;11.464;2023-05-19T03:48:08;9.40;99.90
612;DHT22;293;53.888;11.464;2023-05-19T03:50:35;9.70;99.90
612;DHT22;293;53.888;11.464;2023-05-19T03:53:02;10.20;99.90
612;DHT22;293;53.888;11.464;2023-05-19T03:55:29;10.50;99.90
612;DHT22;293;53.888;11.464;2023-05-19T03:57:56;11.00;99.90
612;DHT22;293;53.888;11.464;2023-05-19T04:00:23;11.80;99.90
612;DHT22;293;53.888;11.464;2023-05-19T04:02:51;12.80;99.90
612;DHT22;293;53.888;11.464;2023-05-19T04:05:18;13.50;99.90
612;DHT22;293;53.888;11.464;2023-05-19T04:07:45;14.10;99.90
612;DHT22;293;53.888;11.464;2023-05-19T04:10:12;14.20;98.00
612;DHT22;293;53.888;11.464;2023-05-19T04:12:39;14.30;97.20
612;DHT22;293;53.888;11.464;2023-05-19T04:15:07;14.40;96.20
612;DHT22;293;53.888;11.464;2023-05-19T04:17:36;14.10;95.40
612;DHT22;293;53.888;11.464;2023-05-19T04:20:05;13.70;95.20
612;DHT22;293;53.888;11.464;2023-05-19T04:22:32;13.30;95.70
612;DHT22;293;53.888;11.464;2023-05-19T04:24:59;13.00;96.30
612;DHT22;293;53.888;11.464;2023-05-19T04:27:26;12.60;96.90
612;DHT22;293;53.888;11.464;2023-05-19T04:29:54;12.40;97.30
612;DHT22;293;53.888;11.464;2023-05-19T04:32:22;12.20;98.10
612;DHT22;293;53.888;11.464;2023-05-19T04:34:50;12.10;98.40
612;DHT22;293;53.888;11.464;2023-05-19T04:37:18;12.00;98.80
612;DHT22;293;53.888;11.464;2023-05-19T04:39:45;12.00;99.30
612;DHT22;293;53.888;11.464;2023-05-19T04:42:12;11.90;99.30
612;DHT22;293;53.888;11.464;2023-05-19T04:44:43;11.90;99.40
612;DHT22;293;53.888;11.464;2023-05-19T04:47:11;11.90;99.70
612;DHT22;293;53.888;11.464;2023-05-19T04:49:39;12.00;99.90
612;DHT22;293;53.888;11.464;2023-05-19T04:52:06;12.00;99.70
612;DHT22;293;53.888;11.464;2023-05-19T04:54:37;12.10;99.60
612;DHT22;293;53.888;11.464;2023-05-19T04:57:06;12.20;99.80
612;DHT22;293;53.888;11.464;2023-05-19T04:59:33;12.20;99.70
612;DHT22;293;53.888;11.464;2023-05-19T05:01:59;12.00;99.30
612;DHT22;293;53.888;11.464;2023-05-19T05:04:26;12.00;98.90
612;DHT22;293;53.888;11.464;2023-05-19T05:06:53;12.00;99.40
612;DHT22;293;53.888;11.464;2023-05-19T05:09:20;12.00;99.20
612;DHT22;293;53.888;11.464;2023-05-19T05:11:49;11.90;99.20
612;DHT22;293;53.888;11.464;2023-05-19T05:14:17;11.90;99.20
612;DHT22;293;53.888;11.464;2023-05-19T05:16:44;11.80;99.20
612;DHT22;293;53.888;11.464;2023-05-19T05:19:11;11.80;99.40
612;DHT22;293;53.888;11.464;2023-05-19T05:21:39;11.80;99.60
612;DHT22;293;53.888;11.464;2023-05-19T05:24:09;11.80;99.50
612;DHT22;293;53.888;11.464;2023-05-19T05:26:36;11.90;99.50
612;DHT22;293;53.888;11.464;2023-05-19T05:29:04;12.00;99.80
612;DHT22;293;53.888;11.464;2023-05-19T05:31:31;12.00;99.60
612;DHT22;293;53.888;11.464;2023-05-19T05:33:58;11.90;99.40
612;DHT22;293;53.888;11.464;2023-05-19T05:36:25;12.00;99.60
612;DHT22;293;53.888;11.464;2023-05-19T05:38:53;11.90;99.40
612;DHT22;293;53.888;11.464;2023-05-19T05:41:19;12.00;99.50
612;DHT22;293;53.888;11.464;2023-05-19T05:43:47;12.10;99.90
612;DHT22;293;53.888;11.464;2023-05-19T05:46:15;12.20;99.50
612;DHT22;293;53.888;11.464;2023-05-19T05:48:43;12.20;99.50
612;DHT22;293;53.888;11.464;2023-05-19T05:51:10;12.40;99.90
612;DHT22;293;53.888;11.464;2023-05-19T05:53:40;12.60;99.50
612;DHT22;293;53.888;11.464;2023-05-19T05:56:09;12.80;99.30
612;DHT22;293;53.888;11.464;2023-05-19T05:58:36;12.90;99.00
612;DHT22;293;53.888;11.464;2023-05-19T06:01:05;13.00;99.10
612;DHT22;293;53.888;11.464;2023-05-19T06:03:37;13.10;98.90
612;DHT22;293;53.888;11.464;2023-05-19T06:06:04;13.30;99.10
612;DHT22;293;53.888;11.464;2023-05-19T06:08:31;13.40;99.00
612;DHT22;293;53.888;11.464;2023-05-19T06:10:58;13.60;98.90
612;DHT22;293;53.888;11.464;2023-05-19T06:13:25;13.80;98.50
612;DHT22;293;53.888;11.464;2023-05-19T06:15:52;14.10;98.60
612;DHT22;293;53.888;11.464;2023-05-19T06:18:19;14.40;98.30
612;DHT22;293;53.888;11.464;2023-05-19T06:20:47;14.80;98.00
612;DHT22;293;53.888;11.464;2023-05-19T06:23:14;15.00;97.30
612;DHT22;293;53.888;11.464;2023-05-19T06:25:40;15.30;96.40
612;DHT22;293;53.888;11.464;2023-05-19T06:28:07;15.70;96.60
612;DHT22;293;53.888;11.464;2023-05-19T06:30:34;16.20;95.80
612;DHT22;293;53.888;11.464;2023-05-19T06:33:02;16.60;94.80
612;DHT22;293;53.888;11.464;2023-05-19T06:35:29;17.00;94.40
612;DHT22;293;53.888;11.464;2023-05-19T06:37:57;17.20;93.30
612;DHT22;293;53.888;11.464;2023-05-19T06:40:24;17.40;92.50
612;DHT22;293;53.888;11.464;2023-05-19T06:42:51;17.30;92.20
612;DHT22;293;53.888;11.464;2023-05-19T06:45:17;17.40;92.40
612;DHT22;293;53.888;11.464;2023-05-19T06:47:46;17.40;92.00
612;DHT22;293;53.888;11.464;2023-05-19T06:50:13;17.50;91.80
612;DHT22;293;53.888;11.464;2023-05-19T06:52:40;17.50;91.30
612;DHT22;293;53.888;11.464;2023-05-19T06:55:10;17.40;90.80
612;DHT22;293;53.888;11.464;2023-05-19T06:57:37;17.30;90.60
612;DHT22;293;53.888;11.464;2023-05-19T07:00:04;17.10;90.60
612;DHT22;293;53.888;11.464;2023-05-19T07:02:33;16.90;90.80
612;DHT22;293;53.888;11.464;2023-05-19T07:05:00;16.80;91.30
612;DHT22;293;53.888;11.464;2023-05-19T07:07:27;16.90;90.90
612;DHT22;293;53.888;11.464;2023-05-19T07:09:54;16.80;91.00
612;DHT22;293;53.888;11.464;2023-05-19T07:12:22;16.80;91.00
612;DHT22;293;53.888;11.464;2023-05-19T07:14:51;16.70;91.00
612;DHT22;293;53.888;11.464;2023-05-19T07:17:17;16.80;91.10
612;DHT22;293;53.888;11.464;2023-05-19T07:19:44;16.80;90.50
612;DHT22;293;53.888;11.464;2023-05-19T07:22:11;16.70;91.20
612;DHT22;293;53.888;11.464;2023-05-19T07:24:38;16.80;91.10
612;DHT22;293;53.888;11.464;2023-05-19T07:27:05;16.80;90.80
612;DHT22;293;53.888;11.464;2023-05-19T07:29:33;16.80;90.70
612;DHT22;293;53.888;11.464;2023-05-19T07:32:00;16.80;90.60
612;DHT22;293;53.888;11.464;2023-05-19T07:34:27;16.80;90.80
612;DHT22;293;53.888;11.464;2023-05-19T07:36:54;16.80;90.60
612;DHT22;293;53.888;11.464;2023-05-19T07:39:20;16.90;90.80
612;DHT22;293;53.888;11.464;2023-05-19T07:41:49;16.90;90.90
612;DHT22;293;53.888;11.464;2023-05-19T07:44:20;16.90;90.50
612;DHT22;293;53.888;11.464;2023-05-19T07:46:48;16.90;90.90
612;DHT22;293;53.888;11.464;2023-05-19T07:49:15;17.00;90.80
612;DHT22;293;53.888;11.464;2023-05-19T07:51:42;17.10;90.60
612;DHT22;293;53.888;11.464;2023-05-19T07:54:09;17.20;90.30
612;DHT22;293;53.888;11.464;2023-05-19T07:56:35;17.20;89.80
612;DHT22;293;53.888;11.464;2023-05-19T07:59:03;17.10;89.10
612;DHT22;293;53.888;11.464;2023-05-19T08:01:30;17.00;88.90
612;DHT22;293;53.888;11.464;2023-05-19T08:03:58;17.10;89.60
612;DHT22;293;53.888;11.464;2023-05-19T08:06:25;16.90;88.00
612;DHT22;293;53.888;11.464;2023-05-19T08:08:52;16.80;88.60
612;DHT22;293;53.888;11.464;2023-05-19T08:11:19;16.80;89.30
612;DHT22;293;53.888;11.464;2023-05-19T08:13:46;16.90;89.10
612;DHT22;293;53.888;11.464;2023-05-19T08:16:13;16.90;88.90
612;DHT22;293;53.888;11.464;2023-05-19T08:18:40;16.90;87.50
612;DHT22;293;53.888;11.464;2023-05-19T08:21:09;16.80;87.10
612;DHT22;293;53.888;11.464;2023-05-19T08:23:36;16.70;88.20
612;DHT22;293;53.888;11.464;2023-05-19T08:26:03;16.80;88.20
612;DHT22;293;53.888;11.464;2023-05-19T08:28:30;16.80;88.10
612;DHT22;293;53.888;11.464;2023-05-19T08:30:57;16.80;88.30
612;DHT22;293;53.888;11.464;2023-05-19T08:33:24;16.80;88.20
612;DHT22;293;53.888;11.464;2023-05-19T08:35:51;16.80;87.80
612;DHT22;293;53.888;11.464;2023-05-19T08:38:21;16.80;87.70
612;DHT22;293;53.888;11.464;2023-05-19T08:40:48;16.80;87.20
612;DHT22;293;53.888;11.464;2023-05-19T08:43:14;16.90;87.40
612;DHT22;293;53.888;11.464;2023-05-19T08:45:43;16.90;87.40
612;DHT22;293;53.888;11.464;2023-05-19T08:48:12;17.10;87.90
612;DHT22;293;53.888;11.464;2023-05-19T08:50:40;17.10;87.00
612;DHT22;293;53.888;11.464;2023-05-19T08:53:12;17.10;87.20
612;DHT22;293;53.888;11.464;2023-05-19T08:55:48;17.10;86.80
612;DHT22;293;53.888;11.464;2023-05-19T08:58:18;17.10;87.00
612;DHT22;293;53.888;11.464;2023-05-19T09:00:46;17.10;87.60
612;DHT22;293;53.888;11.464;2023-05-19T09:03:15;17.20;88.50
612;DHT22;293;53.888;11.464;2023-05-19T09:05:43;17.30;88.70
612;DHT22;293;53.888;11.464;2023-05-19T09:08:10;17.30;87.60
612;DHT22;293;53.888;11.464;2023-05-19T09:10:37;17.20;87.30
612;DHT22;293;53.888;11.464;2023-05-19T09:13:06;17.20;87.80
612;DHT22;293;53.888;11.464;2023-05-19T09:15:33;17.20;88.70
612;DHT22;293;53.888;11.464;2023-05-19T09:18:08;17.10;88.50
612;DHT22;293;53.888;11.464;2023-05-19T09:20:36;17.00;88.60
612;DHT22;293;53.888;11.464;2023-05-19T09:23:05;16.80;89.20
612;DHT22;293;53.888;11.464;2023-05-19T09:25:32;16.90;90.10
612;DHT22;293;53.888;11.464;2023-05-19T09:27:59;16.90;90.20
612;DHT22;293;53.888;11.464;2023-05-19T09:30:27;16.80;90.30
612;DHT22;293;53.888;11.464;2023-05-19T09:32:54;16.80;90.60
612;DHT22;293;53.888;11.464;2023-05-19T09:35:21;16.70;91.30
612;DHT22;293;53.888;11.464;2023-05-19T09:37:48;16.70;91.30
612;DHT22;293;53.888;11.464;2023-05-19T09:40:15;16.70;91.50
612;DHT22;293;53.888;11.464;2023-05-19T09:42:42;16.70;92.10
612;DHT22;293;53.888;11.464;2023-05-19T09:45:09;16.60;92.70
612;DHT22;293;53.888;11.464;2023-05-19T09:47:39;16.60;92.60
612;DHT22;293;53.888;11.464;2023-05-19T09:50:08;15.60;92.50
612;DHT22;293;53.888;11.464;2023-05-19T09:52:35;16.80;93.50
612;DHT22;293;53.888;11.464;2023-05-19T09:55:03;16.60;93.60
612;DHT22;293;53.888;11.464;2023-05-19T09:57:35;16.40;94.10
612;DHT22;293;53.888;11.464;2023-05-19T10:00:06;16.30;95.10
612;DHT22;293;53.888;11.464;2023-05-19T10:02:42;16.30;95.20
612;DHT22;293;53.888;11.464;2023-05-19T10:05:13;16.30;95.50
612;DHT22;293;53.888;11.464;2023-05-19T10:07:42;16.40;95.50
612;DHT22;293;53.888;11.464;2023-05-19T10:10:11;16.30;95.30
612;DHT22;293;53.888;11.464;2023-05-19T10:12:38;16.30;95.80
612;DHT22;293;53.888;11.464;2023-05-19T10:15:08;16.20;96.00
612;DHT22;293;53.888;11.464;2023-05-19T10:17:37;16.00;96.30
612;DHT22;293;53.888;11.464;2023-05-19T10:20:08;16.00;96.50
612;DHT22;293;53.888;11.464;2023-05-19T10:22:35;15.80;96.90
612;DHT22;293;53.888;11.464;2023-05-19T10:25:04;15.70;97.50
612;DHT22;293;53.888;11.464;2023-05-19T10:27:33;15.80;97.80
612;DHT22;293;53.888;11.464;2023-05-19T10:30:06;15.80;98.10
612;DHT22;293;53.888;11.464;2023-05-19T10:32:37;15.80;98.20
612;DHT22;293;53.888;11.464;2023-05-19T10:35:18;15.90;98.00
612;DHT22;293;53.888;11.464;2023-05-19T10:37:54;15.90;97.80
612;DHT22;293;53.888;11.464;2023-05-19T10:40:26;15.80;98.00
612;DHT22;293;53.888;11.464;2023-05-19T10:43:12;15.80;98.30
612;DHT22;293;53.888;11.464;2023-05-19T10:45:46;15.80;98.40
612;DHT22;293;53.888;11.464;2023-05-19T10:48:14;15.90;98.40
612;DHT22;293;53.888;11.464;2023-05-19T10:50:44;16.00;98.50
612;DHT22;293;53.888;11.464;2023-05-19T10:53:14;16.00;98.10
612;DHT22;293;53.888;11.464;2023-05-19T10:55:48;16.00;98.20
612;DHT22;293;53.888;11.464;2023-05-19T10:58:48;16.00;98.10
612;DHT22;293;53.888;11.464;2023-05-19T11:01:17;16.10;98.20
612;DHT22;293;53.888;11.464;2023-05-19T11:03:47;16.20;98.00
612;DHT22;293;53.888;11.464;2023-05-19T11:06:24;16.20;97.30
612;DHT22;293;53.888;11.464;2023-05-19T11:08:53;16.30;97.30
612;DHT22;293;53.888;11.464;2023-05-19T11:11:20;16.40;97.00
612;DHT22;293;53.888;11.464;2023-05-19T11:13:50;16.40;96.50
612;DHT22;293;53.888;11.464;2023-05-19T11:16:18;16.40;96.50
612;DHT22;293;53.888;11.464;2023-05-19T11:18:49;16.40;96.50
612;DHT22;293;53.888;11.464;2023-05-19T11:21:18;16.30;96.40
612;DHT22;293;53.888;11.464;2023-05-19T11:23:47;16.30;96.60
612;DHT22;293;53.888;11.464;2023-05-19T11:26:13;16.20;97.60
612;DHT22;293;53.888;11.464;2023-05-19T11:28:40;16.20;97.50
612;DHT22;293;53.888;11.464;2023-05-19T11:31:08;16.50;97.60
612;DHT22;293;53.888;11.464;2023-05-19T11:33:37;16.50;97.30
612;DHT22;293;53.888;11.464;2023-05-19T11:36:05;16.50;96.90
612;DHT22;293;53.888;11.464;2023-05-19T11:38:33;16.60;96.80
612;DHT22;293;53.888;11.464;2023-05-19T11:41:02;16.50;95.90
612;DHT22;293;53.888;11.464;2023-05-19T11:43:29;16.40;96.20
612;DHT22;293;53.888;11.464;2023-05-19T11:45:58;16.20;96.50
612;DHT22;293;53.888;11.464;2023-05-19T11:48:25;16.20;96.20
612;DHT22;293;53.888;11.464;2023-05-19T11:50:52;16.20;96.00
612;DHT22;293;53.888;11.464;2023-05-19T11:53:22;16.10;96.30
612;DHT22;293;53.888;11.464;2023-05-19T11:55:48;16.20;96.50
612;DHT22;293;53.888;11.464;2023-05-19T11:58:17;16.10;96.10
612;DHT22;293;53.888;11.464;2023-05-19T12:00:44;16.00;96.00
612;DHT22;293;53.888;11.464;2023-05-19T12:03:11;16.10;96.20
612;DHT22;293;53.888;11.464;2023-05-19T12:05:42;16.20;96.30
612;DHT22;293;53.888;11.464;2023-05-19T12:08:10;16.20;96.00
612;DHT22;293;53.888;11.464;2023-05-19T12:10:37;16.20;95.90
612;DHT22;293;53.888;11.464;2023-05-19T12:13:05;16.20;95.90
612;DHT22;293;53.888;11.464;2023-05-19T12:15:34;16.10;95.90
612;DHT22;293;53.888;11.464;2023-05-19T12:18:02;15.90;96.10
612;DHT22;293;53.888;11.464;2023-05-19T12:20:29;15.80;95.50
612;DHT22;293;53.888;11.464;2023-05-19T12:22:57;15.80;95.50
612;DHT22;293;53.888;11.464;2023-05-19T12:25:26;15.70;95.90
612;DHT22;293;53.888;11.464;2023-05-19T12:27:56;15.70;95.90
612;DHT22;293;53.888;11.464;2023-05-19T12:30:27;15.80;96.10
612;DHT22;293;53.888;11.464;2023-05-19T12:32:56;15.70;95.80
612;DHT22;293;53.888;11.464;2023-05-19T12:35:26;15.80;95.90
612;DHT22;293;53.888;11.464;2023-05-19T12:37:53;15.90;95.90
612;DHT22;293;53.888;11.464;2023-05-19T12:40:20;16.00;95.90
612;DHT22;293;53.888;11.464;2023-05-19T12:42:48;16.10;95.70
612;DHT22;293;53.888;11.464;2023-05-19T12:45:20;16.20;95.40
612;DHT22;293;53.888;11.464;2023-05-19T12:47:48;16.30;95.60
612;DHT22;293;53.888;11.464;2023-05-19T12:50:17;16.30;95.70
612;DHT22;293;53.888;11.464;2023-05-19T12:52:46;16.40;95.60
612;DHT22;293;53.888;11.464;2023-05-19T12:55:13;16.50;95.40
612;DHT22;293;53.888;11.464;2023-05-19T12:57:42;16.60;95.40
612;DHT22;293;53.888;11.464;2023-05-19T13:00:14;16.70;95.50
612;DHT22;293;53.888;11.464;2023-05-19T13:02:58;16.80;95.70
612;DHT22;293;53.888;11.464;2023-05-19T13:05:28;16.80;95.90
612;DHT22;293;53.888;11.464;2023-05-19T13:07:56;18.00;96.80
612;DHT22;293;53.888;11.464;2023-05-19T13:10:24;16.90;96.10
612;DHT22;293;53.888;11.464;2023-05-19T13:12:52;16.90;96.20
612;DHT22;293;53.888;11.464;2023-05-19T13:15:21;16.80;96.20
612;DHT22;293;53.888;11.464;2023-05-19T13:17:48;16.80;96.60
612;DHT22;293;53.888;11.464;2023-05-19T13:20:15;16.70;96.60
612;DHT22;293;53.888;11.464;2023-05-19T13:22:43;16.60;96.80
612;DHT22;293;53.888;11.464;2023-05-19T13:25:10;16.60;96.90
612;DHT22;293;53.888;11.464;2023-05-19T13:27:37;16.50;96.90
612;DHT22;293;53.888;11.464;2023-05-19T13:30:05;16.50;97.60
612;DHT22;293;53.888;11.464;2023-05-19T13:32:32;16.50;97.40
612;DHT22;293;53.888;11.464;2023-05-19T13:34:59;16.70;97.80
612;DHT22;293;53.888;11.464;2023-05-19T13:37:26;16.80;97.40
612;DHT22;293;53.888;11.464;2023-05-19T13:39:55;16.90;97.40
612;DHT22;293;53.888;11.464;2023-05-19T13:42:23;17.00;97.40
612;DHT22;293;53.888;11.464;2023-05-19T13:44:53;17.10;97.60
612;DHT22;293;53.888;11.464;2023-05-19T13:47:20;17.20;97.00
612;DHT22;293;53.888;11.464;2023-05-19T13:49:47;17.40;96.80
612;DHT22;293;53.888;11.464;2023-05-19T13:52:14;17.50;95.80
612;DHT22;293;53.888;11.464;2023-05-19T13:54:41;17.70;94.60
612;DHT22;293;53.888;11.464;2023-05-19T13:57:09;17.80;94.20
612;DHT22;293;53.888;11.464;2023-05-19T13:59:36;17.90;94.10
612;DHT22;293;53.888;11.464;2023-05-19T14:02:04;17.80;93.90
612;DHT22;293;53.888;11.464;2023-05-19T14:04:30;17.80;93.80
612;DHT22;293;53.888;11.464;2023-05-19T14:06:57;17.80;94.10
612;DHT22;293;53.888;11.464;2023-05-19T14:09:24;17.80;94.40
612;DHT22;293;53.888;11.464;2023-05-19T14:11:51;17.80;94.30
612;DHT22;293;53.888;11.464;2023-05-19T14:14:19;17.90;94.10
612;DHT22;293;53.888;11.464;2023-05-19T14:16:46;17.90;94.00
612;DHT22;293;53.888;11.464;2023-05-19T14:19:13;17.90;94.20
612;DHT22;293;53.888;11.464;2023-05-19T14:21:40;17.90;94.50
612;DHT22;293;53.888;11.464;2023-05-19T14:24:07;17.90;94.60
612;DHT22;293;53.888;11.464;2023-05-19T14:26:34;17.90;94.20
612;DHT22;293;53.888;11.464;2023-05-19T14:29:01;17.90;94.10
612;DHT22;293;53.888;11.464;2023-05-19T14:31:29;18.00;94.00
612;DHT22;293;53.888;11.464;2023-05-19T14:33:56;18.00;94.40
612;DHT22;293;53.888;11.464;2023-05-19T14:36:23;18.00;94.20
612;DHT22;293;53.888;11.464;2023-05-19T14:38:49;18.10;94.30
612;DHT22;293;53.888;11.464;2023-05-19T14:41:16;18.20;94.10
612;DHT22;293;53.888;11.464;2023-05-19T14:43:43;18.20;93.50
612;DHT22;293;53.888;11.464;2023-05-19T14:46:10;18.20;93.50
612;DHT22;293;53.888;11.464;2023-05-19T14:48:38;18.30;93.40
612;DHT22;293;53.888;11.464;2023-05-19T14:51:05;18.20;93.60
612;DHT22;293;53.888;11.464;2023-05-19T14:53:32;18.30;93.60
612;DHT22;293;53.888;11.464;2023-05-19T14:55:59;18.40;94.00
612;DHT22;293;53.888;11.464;2023-05-19T14:58:26;18.40;92.60
612;DHT22;293;53.888;11.464;2023-05-19T15:00:52;18.50;92.70
612;DHT22;293;53.888;11.464;2023-05-19T15:03:19;18.40;92.60
612;DHT22;293;53.888;11.464;2023-05-19T15:05:49;18.40;92.50
612;DHT22;293;53.888;11.464;2023-05-19T15:08:16;18.30;92.20
612;DHT22;293;53.888;11.464;2023-05-19T15:10:42;18.20;92.20
612;DHT22;293;53.888;11.464;2023-05-19T15:13:13;18.10;92.30
612;DHT22;293;53.888;11.464;2023-05-19T15:15:40;18.00;92.50
612;DHT22;293;53.888;11.464;2023-05-19T15:18:07;17.80;92.80
612;DHT22;293;53.888;11.464;2023-05-19T15:20:34;17.70;92.80
612;DHT22;293;53.888;11.464;2023-05-19T15:23:02;17.70;93.10
612;DHT22;293;53.888;11.464;2023-05-19T15:25:29;17.70;92.90
612;DHT22;293;53.888;11.464;2023-05-19T15:27:56;17.70;93.20
612;DHT22;293;53.888;11.464;2023-05-19T15:30:23;17.80;92.90
612;DHT22;293;53.888;11.464;2023-05-19T15:32:49;17.80;92.70
612;DHT22;293;53.888;11.464;2023-05-19T15:35:16;18.00;92.40
612;DHT22;293;53.888;11.464;2023-05-19T15:37:43;18.00;91.80
612;DHT22;293;53.888;11.464;2023-05-19T15:40:12;18.10;91.50
612;DHT22;293;53.888;11.464;2023-05-19T15:42:39;18.10;91.10
612;DHT22;293;53.888;11.464;2023-05-19T15:45:07;18.20;91.10
612;DHT22;293;53.888;11.464;2023-05-19T15:47:34;18.40;90.80
612;DHT22;293;53.888;11.464;2023-05-19T15:50:01;18.40;90.70
612;DHT22;293;53.888;11.464;2023-05-19T15:52:28;18.40;90.50
612;DHT22;293;53.888;11.464;2023-05-19T15:54:55;18.30;90.50
612;DHT22;293;53.888;11.464;2023-05-19T15:57:24;18.40;90.30
612;DHT22;293;53.888;11.464;2023-05-19T15:59:51;18.40;90.10
612;DHT22;293;53.888;11.464;2023-05-19T16:02:18;18.50;90.00
612;DHT22;293;53.888;11.464;2023-05-19T16:04:45;18.50;87.00
612;DHT22;293;53.888;11.464;2023-05-19T16:07:12;18.60;85.30
612;DHT22;293;53.888;11.464;2023-05-19T16:09:38;18.60;86.00
612;DHT22;293;53.888;11.464;2023-05-19T16:12:06;18.50;87.00
612;DHT22;293;53.888;11.464;2023-05-19T16:14:34;18.50;87.10
612;DHT22;293;53.888;11.464;2023-05-19T16:17:02;18.40;87.50
612;DHT22;293;53.888;11.464;2023-05-19T16:19:29;18.40;89.50
612;DHT22;293;53.888;11.464;2023-05-19T16:21:55;18.40;89.00
612;DHT22;293;53.888;11.464;2023-05-19T16:24:22;18.40;89.20
612;DHT22;293;53.888;11.464;2023-05-19T16:26:49;18.50;88.40
612;DHT22;293;53.888;11.464;2023-05-19T16:29:18;18.50;87.70